sensor_id;sensor_type;location;lat;lon;timestamp;temperature;humidity
47590;DHT22;33316;52.298;9.056;2024-03-06T00:02:25;6.30;99.90
47590;DHT22;33316;52.298;9.056;2024-03-06T00:04:51;6.30;99.90
47590;DHT22;33316;52.298;9.056;2024-03-06T00:07:22;6.30;99.90
47590;DHT22;33316;52.298;9.056;2024-03-06T00:09:48;6.30;99.90
47590;DHT22;33316;52.298;9.056;2024-03-06T00:12:15;6.30;99.90
47590;DHT22;33316;52.298;9.056;2024-03-06T00:14:44;6.30;99.90
47590;DHT22;33316;52.298;9.056;2024-03-06T00:17:11;6.30;99.90
47590;DHT22;33316;52.298;9.056;2024-03-06T00:19:37;6.30;99.90
47590;DHT22;33316;52.298;9.056;2024-03-06T00:22:04;6.30;99.90
47590;DHT22;33316;52.298;9.056;2024-03-06T00:24:33;6.30;99.90
47590;DHT22;33316;52.298;9.056;2024-03-06T00:26:59;6.30;99.90
47590;DHT22;33316;52.298;9.056;2024-03-06T00:29:27;6.30;99.90
47590;DHT22;33316;52.298;9.056;2024-03-06T00:31:54;6.20;99.90
47590;DHT22;33316;52.298;9.056;2024-03-06T00:34:20;6.20;99.90
47590;DHT22;33316;52.298;9.056;2024-03-06T00:36:47;6.20;99.90
47590;DHT22;33316;52.298;9.056;2024-03-06T00:39:15;6.20;99.90
47590;DHT22;33316;52.298;9.056;2024-03-06T00:41:43;6.20;99.90
47590;DHT22;33316;52.298;9.056;2024-03-06T00:44:13;6.10;99.90
47590;DHT22;33316;52.298;9.056;2024-03-06T00:46:40;6.10;99.90
47590;DHT22;33316;52.298;9.056;2024-03-06T00:49:07;6.10;99.90
47590;DHT22;33316;52.298;9.056;2024-03-06T00:51:34;6.10;99.90
47590;DHT22;33316;52.298;9.056;2024-03-06T00:54:02;6.10;99.90
47590;DHT22;33316;52.298;9.056;2024-03-06T00:56:30;6.10;99.90
47590;DHT22;33316;52.298;9.056;2024-03-06T00:58:59;6.10;99.90
47590;DHT22;33316;52.298;9.056;2024-03-06T01:01:25;6.10;99.90
47590;DHT22;33316;52.298;9.056;2024-03-06T01:03:53;6.10;99.90
47590;DHT22;33316;52.298;9.056;2024-03-06T01:06:23;6.10;99.90
47590;DHT22;33316;52.298;9.056;2024-03-06T01:08:50;6.10;99.90
47590;DHT22;33316;52.298;9.056;2024-03-06T01:11:17;6.10;99.90
47590;DHT22;33316;52.298;9.056;2024-03-06T01:13:44;6.10;99.90
47590;DHT22;33316;52.298;9.056;2024-03-06T01:16:12;6.10;99.90
47590;DHT22;33316;52.298;9.056;2024-03-06T01:18:39;6.10;99.90
47590;DHT22;33316;52.298;9.056;2024-03-06T01:21:06;6.10;99.90
47590;DHT22;33316;52.298;9.056;2024-03-06T01:23:33;6.10;99.90
47590;DHT22;33316;52.298;9.056;2024-03-06T01:26:00;6.00;99.90
47590;DHT22;33316;52.298;9.056;2024-03-06T01:28:27;6.00;99.90
47590;DHT22;33316;52.298;9.056;2024-03-06T01:30:54;6.00;99.90
47590;DHT22;33316;52.298;9.056;2024-03-06T01:33:22;6.00;99.90
47590;DHT22;33316;52.298;9.056;2024-03-06T01:35:49;6.00;99.90
47590;DHT22;33316;52.298;9.056;2024-03-06T01:38:16;6.00;99.90
47590;DHT22;33316;52.298;9.056;2024-03-06T01:40:44;6.00;99.90
47590;DHT22;33316;52.298;9.056;2024-03-06T01:43:19;6.00;99.90
47590;DHT22;33316;52.298;9.056;2024-03-06T01:45:47;6.00;99.90
47590;DHT22;33316;52.298;9.056;2024-03-06T01:48:15;6.00;99.90
47590;DHT22;33316;52.298;9.056;2024-03-06T01:50:44;5.90;99.90
47590;DHT22;33316;52.298;9.056;2024-03-06T01:53:12;5.90;99.90
47590;DHT22;33316;52.298;9.056;2024-03-06T01:55:39;5.90;99.90
47590;DHT22;33316;52.298;9.056;2024-03-06T01:58:07;5.90;99.90
47590;DHT22;33316;52.298;9.056;2024-03-06T02:00:36;5.90;99.90
47590;DHT22;33316;52.298;9.056;2024-03-06T02:03:03;5.90;99.90
47590;DHT22;33316;52.298;9.056;2024-03-06T02:05:31;5.90;99.90
47590;DHT22;33316;52.298;9.056;2024-03-06T02:08:00;5.90;99.90
47590;DHT22;33316;52.298;9.056;2024-03-06T02:10:28;5.90;99.90
47590;DHT22;33316;52.298;9.056;2024-03-06T02:12:55;5.90;99.90
47590;DHT22;33316;52.298;9.056;2024-03-06T02:15:22;5.80;99.90
47590;DHT22;33316;52.298;9.056;2024-03-06T02:17:50;5.80;99.90
47590;DHT22;33316;52.298;9.056;2024-03-06T02:20:23;5.80;99.90
47590;DHT22;33316;52.298;9.056;2024-03-06T02:22:50;5.80;99.90
47590;DHT22;33316;52.298;9.056;2024-03-06T02:25:17;5.80;99.90
47590;DHT22;33316;52.298;9.056;2024-03-06T02:27:44;5.80;99.90
47590;DHT22;33316;52.298;9.056;2024-03-06T02:30:13;5.80;99.90
47590;DHT22;33316;52.298;9.056;2024-03-06T02:32:40;5.70;99.90
47590;DHT22;33316;52.298;9.056;2024-03-06T02:35:09;5.70;99.90
47590;DHT22;33316;52.298;9.056;2024-03-06T02:37:37;5.70;99.90
47590;DHT22;33316;52.298;9.056;2024-03-06T02:40:05;5.80;99.90
47590;DHT22;33316;52.298;9.056;2024-03-06T02:42:35;5.80;99.90
47590;DHT22;33316;52.298;9.056;2024-03-06T02:45:05;5.70;99.90
47590;DHT22;33316;52.298;9.056;2024-03-06T02:47:32;5.70;99.90
47590;DHT22;33316;52.298;9.056;2024-03-06T02:49:59;5.70;99.90
47590;DHT22;33316;52.298;9.056;2024-03-06T02:52:26;5.70;99.90
47590;DHT22;33316;52.298;9.056;2024-03-06T02:54:56;5.70;99.90
47590;DHT22;33316;52.298;9.056;2024-03-06T02:57:23;5.70;99.90
47590;DHT22;33316;52.298;9.056;2024-03-06T02:59:54;5.70;99.90
47590;DHT22;33316;52.298;9.056;2024-03-06T03:02:20;5.60;99.90
47590;DHT22;33316;52.298;9.056;2024-03-06T03:04:47;5.60;99.90
47590;DHT22;33316;52.298;9.056;2024-03-06T03:07:14;5.60;99.90
47590;DHT22;33316;52.298;9.056;2024-03-06T03:09:42;5.60;99.90
47590;DHT22;33316;52.298;9.056;2024-03-06T03:12:10;5.60;99.90
47590;DHT22;33316;52.298;9.056;2024-03-06T03:14:37;5.60;99.90
47590;DHT22;33316;52.298;9.056;2024-03-06T03:17:06;5.50;99.90
47590;DHT22;33316;52.298;9.056;2024-03-06T03:19:33;5.50;99.90
47590;DHT22;33316;52.298;9.056;2024-03-06T03:22:00;5.50;99.90
47590;DHT22;33316;52.298;9.056;2024-03-06T03:24:29;5.50;99.90
47590;DHT22;33316;52.298;9.056;2024-03-06T03:26:56;5.50;99.90
47590;DHT22;33316;52.298;9.056;2024-03-06T03:29:24;5.50;99.90
47590;DHT22;33316;52.298;9.056;2024-03-06T03:31:51;5.60;99.90
47590;DHT22;33316;52.298;9.056;2024-03-06T03:34:18;5.50;99.90
47590;DHT22;33316;52.298;9.056;2024-03-06T03:36:46;5.60;99.90
47590;DHT22;33316;52.298;9.056;2024-03-06T03:39:14;5.60;99.90
47590;DHT22;33316;52.298;9.056;2024-03-06T03:41:45;5.60;99.90
47590;DHT22;33316;52.298;9.056;2024-03-06T03:44:13;5.60;99.90
47590;DHT22;33316;52.298;9.056;2024-03-06T03:46:41;5.60;99.90
47590;DHT22;33316;52.298;9.056;2024-03-06T03:49:08;5.50;99.90
47590;DHT22;33316;52.298;9.056;2024-03-06T03:51:35;5.60;99.90
47590;DHT22;33316;52.298;9.056;2024-03-06T03:54:02;5.50;99.90
47590;DHT22;33316;52.298;9.056;2024-03-06T03:56:29;5.50;99.90
47590;DHT22;33316;52.298;9.056;2024-03-06T03:58:57;5.60;99.90
47590;DHT22;33316;52.298;9.056;2024-03-06T04:01:23;5.50;99.90
47590;DHT22;33316;52.298;9.056;2024-03-06T04:03:52;5.50;99.90
47590;DHT22;33316;52.298;9.056;2024-03-06T04:06:19;5.50;99.90
47590;DHT22;33316;52.298;9.056;2024-03-06T04:08:46;5.50;99.90
47590;DHT22;33316;52.298;9.056;2024-03-06T04:11:14;5.50;99.90
47590;DHT22;33316;52.298;9.056;2024-03-06T04:13:41;5.50;99.90
47590;DHT22;33316;52.298;9.056;2024-03-06T04:16:07;5.50;99.90
47590;DHT22;33316;52.298;9.056;2024-03-06T04:18:34;5.50;99.90
47590;DHT22;33316;52.298;9.056;2024-03-06T04:21:04;5.50;99.90
47590;DHT22;33316;52.298;9.056;2024-03-06T04:23:32;5.50;99.90
47590;DHT22;33316;52.298;9.056;2024-03-06T04:25:59;5.50;99.90
47590;DHT22;33316;52.298;9.056;2024-03-06T04:28:26;5.50;99.90
47590;DHT22;33316;52.298;9.056;2024-03-06T04:30:53;5.50;99.90
47590;DHT22;33316;52.298;9.056;2024-03-06T04:33:20;5.50;99.90
47590;DHT22;33316;52.298;9.056;2024-03-06T04:35:46;5.50;99.90
47590;DHT22;33316;52.298;9.056;2024-03-06T04:38:15;5.50;99.90
47590;DHT22;33316;52.298;9.056;2024-03-06T04:40:42;5.50;99.90
47590;DHT22;33316;52.298;9.056;2024-03-06T04:43:08;5.50;99.90
47590;DHT22;33316;52.298;9.056;2024-03-06T04:45:35;5.50;99.90
47590;DHT22;33316;52.298;9.056;2024-03-06T04:48:02;5.60;99.90
47590;DHT22;33316;52.298;9.056;2024-03-06T04:50:29;5.60;99.90
47590;DHT22;33316;52.298;9.056;2024-03-06T04:52:56;5.60;99.90
47590;DHT22;33316;52.298;9.056;2024-03-06T04:55:27;5.60;99.90
47590;DHT22;33316;52.298;9.056;2024-03-06T04:57:56;5.70;99.90
47590;DHT22;33316;52.298;9.056;2024-03-06T05:00:23;5.70;99.90
47590;DHT22;33316;52.298;9.056;2024-03-06T05:02:50;5.70;99.90
47590;DHT22;33316;52.298;9.056;2024-03-06T05:05:17;5.70;99.90
47590;DHT22;33316;52.298;9.056;2024-03-06T05:07:44;5.70;99.90
47590;DHT22;33316;52.298;9.056;2024-03-06T05:10:11;5.70;99.90
47590;DHT22;33316;52.298;9.056;2024-03-06T05:12:39;5.80;99.90
47590;DHT22;33316;52.298;9.056;2024-03-06T05:15:06;5.70;99.90
47590;DHT22;33316;52.298;9.056;2024-03-06T05:17:33;5.70;99.90
47590;DHT22;33316;52.298;9.056;2024-03-06T05:20:01;5.70;99.90
47590;DHT22;33316;52.298;9.056;2024-03-06T05:22:29;5.70;99.90
47590;DHT22;33316;52.298;9.056;2024-03-06T05:24:56;5.70;99.90
47590;DHT22;33316;52.298;9.056;2024-03-06T05:27:24;5.70;99.90
47590;DHT22;33316;52.298;9.056;2024-03-06T05:29:53;5.70;99.90
47590;DHT22;33316;52.298;9.056;2024-03-06T05:32:20;5.70;99.90
47590;DHT22;33316;52.298;9.056;2024-03-06T05:34:47;5.70;99.90
47590;DHT22;33316;52.298;9.056;2024-03-06T05:37:13;5.70;99.90
47590;DHT22;33316;52.298;9.056;2024-03-06T05:39:40;5.70;99.90
47590;DHT22;33316;52.298;9.056;2024-03-06T05:42:08;5.60;99.90
47590;DHT22;33316;52.298;9.056;2024-03-06T05:44:34;5.60;99.90
47590;DHT22;33316;52.298;9.056;2024-03-06T05:47:03;5.60;99.90
47590;DHT22;33316;52.298;9.056;2024-03-06T05:49:31;5.60;99.90
47590;DHT22;33316;52.298;9.056;2024-03-06T05:51:58;5.60;99.90
47590;DHT22;33316;52.298;9.056;2024-03-06T05:54:25;5.60;99.90
47590;DHT22;33316;52.298;9.056;2024-03-06T05:56:53;5.60;99.90
47590;DHT22;33316;52.298;9.056;2024-03-06T05:59:20;5.70;99.90
47590;DHT22;33316;52.298;9.056;2024-03-06T06:01:47;5.70;99.90
47590;DHT22;33316;52.298;9.056;2024-03-06T06:04:15;5.70;99.90
47590;DHT22;33316;52.298;9.056;2024-03-06T06:06:42;5.70;99.90
47590;DHT22;33316;52.298;9.056;2024-03-06T06:09:09;5.70;99.90
47590;DHT22;33316;52.298;9.056;2024-03-06T06:11:41;5.70;99.90
47590;DHT22;33316;52.298;9.056;2024-03-06T06:14:08;5.70;99.90
47590;DHT22;33316;52.298;9.056;2024-03-06T06:16:36;5.70;99.90
47590;DHT22;33316;52.298;9.056;2024-03-06T06:19:03;5.70;99.90
47590;DHT22;33316;52.298;9.056;2024-03-06T06:21:32;5.70;99.90
47590;DHT22;33316;52.298;9.056;2024-03-06T06:24:01;5.70;99.90
47590;DHT22;33316;52.298;9.056;2024-03-06T06:26:29;5.70;99.90
47590;DHT22;33316;52.298;9.056;2024-03-06T06:29:00;5.80;99.90
47590;DHT22;33316;52.298;9.056;2024-03-06T06:31:29;5.80;99.90
47590;DHT22;33316;52.298;9.056;2024-03-06T06:33:56;5.80;99.90
47590;DHT22;33316;52.298;9.056;2024-03-06T06:36:23;5.80;99.90
47590;DHT22;33316;52.298;9.056;2024-03-06T06:38:53;5.70;99.90
47590;DHT22;33316;52.298;9.056;2024-03-06T06:41:20;5.70;99.90
47590;DHT22;33316;52.298;9.056;2024-03-06T06:43:50;5.80;99.90
47590;DHT22;33316;52.298;9.056;2024-03-06T06:46:18;5.80;99.90
47590;DHT22;33316;52.298;9.056;2024-03-06T06:48:45;5.80;99.90
47590;DHT22;33316;52.298;9.056;2024-03-06T06:51:14;5.80;99.90
47590;DHT22;33316;52.298;9.056;2024-03-06T06:53:40;5.80;99.90
47590;DHT22;33316;52.298;9.056;2024-03-06T06:56:09;5.80;99.90
47590;DHT22;33316;52.298;9.056;2024-03-06T06:58:38;5.80;99.90
47590;DHT22;33316;52.298;9.056;2024-03-06T07:01:08;5.80;99.90
47590;DHT22;33316;52.298;9.056;2024-03-06T07:03:37;5.80;99.90
47590;DHT22;33316;52.298;9.056;2024-03-06T07:06:05;5.80;99.90
47590;DHT22;33316;52.298;9.056;2024-03-06T07:08:32;5.80;99.90
47590;DHT22;33316;52.298;9.056;2024-03-06T07:10:59;5.90;99.90
47590;DHT22;33316;52.298;9.056;2024-03-06T07:13:27;5.80;99.90
47590;DHT22;33316;52.298;9.056;2024-03-06T07:15:55;5.90;99.90
47590;DHT22;33316;52.298;9.056;2024-03-06T07:18:22;5.90;99.90
47590;DHT22;33316;52.298;9.056;2024-03-06T07:20:49;5.90;99.90
47590;DHT22;33316;52.298;9.056;2024-03-06T07:23:16;5.90;99.90
47590;DHT22;33316;52.298;9.056;2024-03-06T07:25:43;5.90;99.90
47590;DHT22;33316;52.298;9.056;2024-03-06T07:28:10;5.90;99.90
47590;DHT22;33316;52.298;9.056;2024-03-06T07:30:38;5.80;99.90
47590;DHT22;33316;52.298;9.056;2024-03-06T07:33:05;5.90;99.90
47590;DHT22;33316;52.298;9.056;2024-03-06T07:35:33;5.90;99.90
47590;DHT22;33316;52.298;9.056;2024-03-06T07:38:01;5.90;99.90
47590;DHT22;33316;52.298;9.056;2024-03-06T07:40:30;5.90;99.90
47590;DHT22;33316;52.298;9.056;2024-03-06T07:42:56;5.90;99.90
47590;DHT22;33316;52.298;9.056;2024-03-06T07:45:25;5.90;99.90
47590;DHT22;33316;52.298;9.056;2024-03-06T07:47:53;5.90;99.90
47590;DHT22;33316;52.298;9.056;2024-03-06T07:50:20;5.90;99.90
47590;DHT22;33316;52.298;9.056;2024-03-06T07:52:47;5.90;99.90
47590;DHT22;33316;52.298;9.056;2024-03-06T07:55:14;5.90;99.90
47590;DHT22;33316;52.298;9.056;2024-03-06T07:57:41;5.90;99.90
47590;DHT22;33316;52.298;9.056;2024-03-06T08:00:08;5.90;99.90
47590;DHT22;33316;52.298;9.056;2024-03-06T08:02:40;5.90;99.90
47590;DHT22;33316;52.298;9.056;2024-03-06T08:05:10;5.90;99.90
47590;DHT22;33316;52.298;9.056;2024-03-06T08:07:38;5.90;99.90
47590;DHT22;33316;52.298;9.056;2024-03-06T08:10:08;6.00;99.90
47590;DHT22;33316;52.298;9.056;2024-03-06T08:12:39;6.00;99.90
47590;DHT22;33316;52.298;9.056;2024-03-06T08:15:07;6.00;99.90
47590;DHT22;33316;52.298;9.056;2024-03-06T08:17:38;6.10;99.90
47590;DHT22;33316;52.298;9.056;2024-03-06T08:20:06;6.10;99.90
47590;DHT22;33316;52.298;9.056;2024-03-06T08:22:34;6.10;99.90
47590;DHT22;33316;52.298;9.056;2024-03-06T08:25:05;6.20;99.90
47590;DHT22;33316;52.298;9.056;2024-03-06T08:27:34;6.20;99.90
47590;DHT22;33316;52.298;9.056;2024-03-06T08:30:01;6.20;99.90
47590;DHT22;33316;52.298;9.056;2024-03-06T08:32:30;6.20;99.90
47590;DHT22;33316;52.298;9.056;2024-03-06T08:34:57;6.30;99.90
47590;DHT22;33316;52.298;9.056;2024-03-06T08:37:24;6.30;99.90
47590;DHT22;33316;52.298;9.056;2024-03-06T08:39:52;6.30;99.90
47590;DHT22;33316;52.298;9.056;2024-03-06T08:42:21;6.30;99.90
47590;DHT22;33316;52.298;9.056;2024-03-06T08:44:50;6.30;99.90
47590;DHT22;33316;52.298;9.056;2024-03-06T08:47:17;6.40;99.90
47590;DHT22;33316;52.298;9.056;2024-03-06T08:49:44;6.40;99.90
47590;DHT22;33316;52.298;9.056;2024-03-06T08:52:11;6.40;99.90
47590;DHT22;33316;52.298;9.056;2024-03-06T08:54:38;6.40;99.90
47590;DHT22;33316;52.298;9.056;2024-03-06T08:57:07;6.50;99.90
47590;DHT22;33316;52.298;9.056;2024-03-06T08:59:35;6.50;99.90
47590;DHT22;33316;52.298;9.056;2024-03-06T09:02:12;6.50;99.90
47590;DHT22;33316;52.298;9.056;2024-03-06T09:04:40;6.50;99.90
47590;DHT22;33316;52.298;9.056;2024-03-06T09:07:07;6.50;99.90
47590;DHT22;33316;52.298;9.056;2024-03-06T09:09:34;6.50;99.90
47590;DHT22;33316;52.298;9.056;2024-03-06T09:12:02;6.50;99.90
47590;DHT22;33316;52.298;9.056;2024-03-06T09:14:32;6.50;99.90
47590;DHT22;33316;52.298;9.056;2024-03-06T09:16:59;6.50;99.90
47590;DHT22;33316;52.298;9.056;2024-03-06T09:19:26;6.50;99.90
47590;DHT22;33316;52.298;9.056;2024-03-06T09:21:53;6.50;99.90
47590;DHT22;33316;52.298;9.056;2024-03-06T09:24:21;6.50;99.90
47590;DHT22;33316;52.298;9.056;2024-03-06T09:26:48;6.50;99.90
47590;DHT22;33316;52.298;9.056;2024-03-06T09:29:17;6.50;99.90
47590;DHT22;33316;52.298;9.056;2024-03-06T09:31:45;6.50;99.90
47590;DHT22;33316;52.298;9.056;2024-03-06T09:34:14;6.50;99.90
47590;DHT22;33316;52.298;9.056;2024-03-06T09:36:45;6.50;99.90
47590;DHT22;33316;52.298;9.056;2024-03-06T09:39:12;6.50;99.90
47590;DHT22;33316;52.298;9.056;2024-03-06T09:41:40;6.50;99.90
47590;DHT22;33316;52.298;9.056;2024-03-06T09:44:07;6.50;99.90
47590;DHT22;33316;52.298;9.056;2024-03-06T09:46:36;6.60;99.90
47590;DHT22;33316;52.298;9.056;2024-03-06T09:49:05;6.50;99.90
47590;DHT22;33316;52.298;9.056;2024-03-06T09:51:34;6.50;99.90
47590;DHT22;33316;52.298;9.056;2024-03-06T09:54:02;6.60;99.90
47590;DHT22;33316;52.298;9.056;2024-03-06T09:56:29;6.60;99.90
47590;DHT22;33316;52.298;9.056;2024-03-06T09:58:57;6.60;99.90
47590;DHT22;33316;52.298;9.056;2024-03-06T10:01:26;6.60;99.90
47590;DHT22;33316;52.298;9.056;2024-03-06T10:03:54;6.60;99.90
47590;DHT22;33316;52.298;9.056;2024-03-06T10:06:23;6.60;99.90
47590;DHT22;33316;52.298;9.056;2024-03-06T10:08:50;6.70;99.90
47590;DHT22;33316;52.298;9.056;2024-03-06T10:11:17;6.70;99.90
47590;DHT22;33316;52.298;9.056;2024-03-06T10:13:45;6.70;99.90
47590;DHT22;33316;52.298;9.056;2024-03-06T10:16:11;6.80;99.90
47590;DHT22;33316;52.298;9.056;2024-03-06T10:18:39;6.80;99.90
47590;DHT22;33316;52.298;9.056;2024-03-06T10:21:07;6.80;99.90
47590;DHT22;33316;52.298;9.056;2024-03-06T10:23:36;6.80;99.90
47590;DHT22;33316;52.298;9.056;2024-03-06T10:26:07;6.90;99.90
47590;DHT22;33316;52.298;9.056;2024-03-06T10:28:34;6.90;99.90
47590;DHT22;33316;52.298;9.056;2024-03-06T10:31:04;6.90;99.90
47590;DHT22;33316;52.298;9.056;2024-03-06T10:33:34;6.90;99.90
47590;DHT22;33316;52.298;9.056;2024-03-06T10:36:00;6.90;99.90
47590;DHT22;33316;52.298;9.056;2024-03-06T10:38:31;7.00;99.90
47590;DHT22;33316;52.298;9.056;2024-03-06T10:41:04;7.00;99.90
47590;DHT22;33316;52.298;9.056;2024-03-06T10:43:33;7.00;99.90
47590;DHT22;33316;52.298;9.056;2024-03-06T10:46:05;7.10;99.90
47590;DHT22;33316;52.298;9.056;2024-03-06T10:48:32;7.00;99.90
47590;DHT22;33316;52.298;9.056;2024-03-06T10:51:01;7.10;99.90
47590;DHT22;33316;52.298;9.056;2024-03-06T10:53:29;7.10;99.90
47590;DHT22;33316;52.298;9.056;2024-03-06T10:55:58;7.20;99.90
47590;DHT22;33316;52.298;9.056;2024-03-06T10:58:27;7.20;99.90
47590;DHT22;33316;52.298;9.056;2024-03-06T11:00:56;7.20;99.90
47590;DHT22;33316;52.298;9.056;2024-03-06T11:03:23;7.30;99.90
47590;DHT22;33316;52.298;9.056;2024-03-06T11:05:52;7.30;99.90
47590;DHT22;33316;52.298;9.056;2024-03-06T11:08:19;7.40;99.90
47590;DHT22;33316;52.298;9.056;2024-03-06T11:10:48;7.40;99.90
47590;DHT22;33316;52.298;9.056;2024-03-06T11:13:23;7.50;99.90
47590;DHT22;33316;52.298;9.056;2024-03-06T11:15:53;7.50;99.90
47590;DHT22;33316;52.298;9.056;2024-03-06T11:18:41;7.50;99.90
47590;DHT22;33316;52.298;9.056;2024-03-06T11:24:19;7.60;99.90
47590;DHT22;33316;52.298;9.056;2024-03-06T11:26:57;7.60;99.90
47590;DHT22;33316;52.298;9.056;2024-03-06T11:29:28;7.60;99.90
47590;DHT22;33316;52.298;9.056;2024-03-06T11:32:05;7.60;99.90
47590;DHT22;33316;52.298;9.056;2024-03-06T11:34:34;7.60;99.90
47590;DHT22;33316;52.298;9.056;2024-03-06T11:37:04;7.70;99.90
47590;DHT22;33316;52.298;9.056;2024-03-06T11:39:35;7.70;99.90
47590;DHT22;33316;52.298;9.056;2024-03-06T11:42:03;7.70;99.90
47590;DHT22;33316;52.298;9.056;2024-03-06T11:44:31;7.70;99.90
47590;DHT22;33316;52.298;9.056;2024-03-06T11:47:01;7.70;99.90
47590;DHT22;33316;52.298;9.056;2024-03-06T11:49:32;7.70;99.90
47590;DHT22;33316;52.298;9.056;2024-03-06T11:52:00;7.80;99.90
47590;DHT22;33316;52.298;9.056;2024-03-06T11:54:31;7.80;99.90
47590;DHT22;33316;52.298;9.056;2024-03-06T11:56:59;7.80;99.90
47590;DHT22;33316;52.298;9.056;2024-03-06T11:59:27;7.80;99.90
47590;DHT22;33316;52.298;9.056;2024-03-06T12:01:56;7.80;99.90
47590;DHT22;33316;52.298;9.056;2024-03-06T12:04:25;7.80;99.90
47590;DHT22;33316;52.298;9.056;2024-03-06T12:06:51;7.70;99.90
47590;DHT22;33316;52.298;9.056;2024-03-06T12:09:20;7.80;99.90
47590;DHT22;33316;52.298;9.056;2024-03-06T12:11:50;7.80;99.90
47590;DHT22;33316;52.298;9.056;2024-03-06T12:14:18;7.80;99.90
47590;DHT22;33316;52.298;9.056;2024-03-06T12:16:54;7.80;99.90
47590;DHT22;33316;52.298;9.056;2024-03-06T12:19:24;7.90;99.90
47590;DHT22;33316;52.298;9.056;2024-03-06T12:21:52;7.90;99.90
47590;DHT22;33316;52.298;9.056;2024-03-06T12:24:19;7.90;99.90
47590;DHT22;33316;52.298;9.056;2024-03-06T12:26:47;7.90;99.90
47590;DHT22;33316;52.298;9.056;2024-03-06T12:29:18;7.90;99.90
47590;DHT22;33316;52.298;9.056;2024-03-06T12:31:45;8.00;99.90
47590;DHT22;33316;52.298;9.056;2024-03-06T12:34:14;8.00;99.90
47590;DHT22;33316;52.298;9.056;2024-03-06T12:36:43;8.00;99.90
47590;DHT22;33316;52.298;9.056;2024-03-06T12:39:10;8.00;99.90
47590;DHT22;33316;52.298;9.056;2024-03-06T12:41:39;8.10;99.90
47590;DHT22;33316;52.298;9.056;2024-03-06T12:44:06;8.10;99.90
47590;DHT22;33316;52.298;9.056;2024-03-06T12:46:33;8.20;99.90
47590;DHT22;33316;52.298;9.056;2024-03-06T12:49:00;8.20;99.90
47590;DHT22;33316;52.298;9.056;2024-03-06T12:51:27;8.20;99.90
47590;DHT22;33316;52.298;9.056;2024-03-06T12:53:55;8.20;99.90
47590;DHT22;33316;52.298;9.056;2024-03-06T12:56:24;8.30;99.90
47590;DHT22;33316;52.298;9.056;2024-03-06T12:58:51;8.30;99.90
47590;DHT22;33316;52.298;9.056;2024-03-06T13:01:18;8.30;99.90
47590;DHT22;33316;52.298;9.056;2024-03-06T13:03:45;8.40;99.90
47590;DHT22;33316;52.298;9.056;2024-03-06T13:06:14;8.40;99.90
47590;DHT22;33316;52.298;9.056;2024-03-06T13:08:41;8.40;99.90
47590;DHT22;33316;52.298;9.056;2024-03-06T13:11:09;8.40;99.90
47590;DHT22;33316;52.298;9.056;2024-03-06T13:13:37;8.50;99.90
47590;DHT22;33316;52.298;9.056;2024-03-06T13:16:04;8.50;99.90
47590;DHT22;33316;52.298;9.056;2024-03-06T13:18:31;8.60;99.90
47590;DHT22;33316;52.298;9.056;2024-03-06T13:20:58;8.60;99.90
47590;DHT22;33316;52.298;9.056;2024-03-06T13:23:26;8.60;99.90
47590;DHT22;33316;52.298;9.056;2024-03-06T13:25:53;8.70;99.90
47590;DHT22;33316;52.298;9.056;2024-03-06T13:28:21;8.80;99.90
47590;DHT22;33316;52.298;9.056;2024-03-06T13:30:48;8.80;99.90
47590;DHT22;33316;52.298;9.056;2024-03-06T13:33:16;8.80;99.90
47590;DHT22;33316;52.298;9.056;2024-03-06T13:35:43;8.80;99.90
47590;DHT22;33316;52.298;9.056;2024-03-06T13:38:10;8.80;99.90
47590;DHT22;33316;52.298;9.056;2024-03-06T13:40:37;8.80;99.90
47590;DHT22;33316;52.298;9.056;2024-03-06T13:43:05;8.80;99.90
47590;DHT22;33316;52.298;9.056;2024-03-06T13:45:35;8.90;99.90
47590;DHT22;33316;52.298;9.056;2024-03-06T13:48:13;8.90;99.90
47590;DHT22;33316;52.298;9.056;2024-03-06T13:50:40;9.00;99.90
47590;DHT22;33316;52.298;9.056;2024-03-06T13:53:07;8.90;99.90
47590;DHT22;33316;52.298;9.056;2024-03-06T13:55:34;9.00;99.90
47590;DHT22;33316;52.298;9.056;2024-03-06T13:58:01;9.00;99.90
47590;DHT22;33316;52.298;9.056;2024-03-06T14:00:28;9.00;99.90
47590;DHT22;33316;52.298;9.056;2024-03-06T14:02:56;9.10;99.90
47590;DHT22;33316;52.298;9.056;2024-03-06T14:05:23;9.00;99.90
47590;DHT22;33316;52.298;9.056;2024-03-06T14:07:51;9.10;99.90
47590;DHT22;33316;52.298;9.056;2024-03-06T14:10:19;9.10;99.90
47590;DHT22;33316;52.298;9.056;2024-03-06T14:12:47;9.10;99.90
47590;DHT22;33316;52.298;9.056;2024-03-06T14:15:17;9.10;99.90
47590;DHT22;33316;52.298;9.056;2024-03-06T14:17:44;9.10;99.90
47590;DHT22;33316;52.298;9.056;2024-03-06T14:20:13;9.10;99.90
47590;DHT22;33316;52.298;9.056;2024-03-06T14:22:41;9.20;99.90
47590;DHT22;33316;52.298;9.056;2024-03-06T14:25:08;9.10;99.90
47590;DHT22;33316;52.298;9.056;2024-03-06T14:27:36;9.10;99.90
47590;DHT22;33316;52.298;9.056;2024-03-06T14:30:03;9.20;99.90
47590;DHT22;33316;52.298;9.056;2024-03-06T14:32:33;9.10;99.90
47590;DHT22;33316;52.298;9.056;2024-03-06T14:35:00;9.10;99.90
47590;DHT22;33316;52.298;9.056;2024-03-06T14:37:28;9.10;99.90
47590;DHT22;33316;52.298;9.056;2024-03-06T14:39:57;9.10;99.80
47590;DHT22;33316;52.298;9.056;2024-03-06T14:42:24;9.10;99.60
47590;DHT22;33316;52.298;9.056;2024-03-06T14:44:51;9.10;99.60
47590;DHT22;33316;52.298;9.056;2024-03-06T14:47:18;9.10;99.70
47590;DHT22;33316;52.298;9.056;2024-03-06T14:49:45;9.10;99.60
47590;DHT22;33316;52.298;9.056;2024-03-06T14:52:12;9.00;99.20
47590;DHT22;33316;52.298;9.056;2024-03-06T14:54:40;9.00;99.10
47590;DHT22;33316;52.298;9.056;2024-03-06T14:57:08;9.00;99.20
47590;DHT22;33316;52.298;9.056;2024-03-06T14:59:37;9.00;99.30
47590;DHT22;33316;52.298;9.056;2024-03-06T15:02:04;9.00;99.00
47590;DHT22;33316;52.298;9.056;2024-03-06T15:04:30;9.00;98.90
47590;DHT22;33316;52.298;9.056;2024-03-06T15:06:58;9.00;98.90
47590;DHT22;33316;52.298;9.056;2024-03-06T15:09:28;9.10;98.70
47590;DHT22;33316;52.298;9.056;2024-03-06T15:11:56;9.10;98.50
47590;DHT22;33316;52.298;9.056;2024-03-06T15:14:28;9.10;98.60
47590;DHT22;33316;52.298;9.056;2024-03-06T15:16:57;9.10;98.60
47590;DHT22;33316;52.298;9.056;2024-03-06T15:19:24;9.10;98.60
47590;DHT22;33316;52.298;9.056;2024-03-06T15:21:51;9.10;98.40
47590;DHT22;33316;52.298;9.056;2024-03-06T15:24:18;9.10;98.40
47590;DHT22;33316;52.298;9.056;2024-03-06T15:26:45;9.10;98.30
47590;DHT22;33316;52.298;9.056;2024-03-06T15:29:13;9.10;98.40
47590;DHT22;33316;52.298;9.056;2024-03-06T15:31:40;9.00;98.30
47590;DHT22;33316;52.298;9.056;2024-03-06T15:34:07;9.00;98.30
47590;DHT22;33316;52.298;9.056;2024-03-06T15:36:34;9.00;98.30
47590;DHT22;33316;52.298;9.056;2024-03-06T15:39:05;9.00;98.20
47590;DHT22;33316;52.298;9.056;2024-03-06T15:41:34;9.00;98.10
47590;DHT22;33316;52.298;9.056;2024-03-06T15:44:01;9.00;98.00
47590;DHT22;33316;52.298;9.056;2024-03-06T15:46:29;9.00;97.90
47590;DHT22;33316;52.298;9.056;2024-03-06T15:49:06;9.00;98.00
47590;DHT22;33316;52.298;9.056;2024-03-06T15:51:33;9.00;97.80
47590;DHT22;33316;52.298;9.056;2024-03-06T15:54:00;8.90;97.70